createdAt,value
2023-03-20T00:02:07.019Z,9.80
2023-03-20T00:04:34.614Z,9.67
2023-03-20T00:07:02.046Z,9.49
2023-03-20T00:09:29.206Z,9.42
2023-03-20T00:11:56.644Z,9.44
2023-03-20T00:14:24.977Z,9.35
2023-03-20T00:16:52.318Z,9.37
2023-03-20T00:19:25.894Z,9.42
2023-03-20T00:21:54.955Z,9.40
2023-03-20T00:24:23.026Z,9.25
2023-03-20T00:26:51.708Z,9.13
2023-03-20T00:29:27.653Z,9.07
2023-03-20T00:31:55.940Z,9.14
2023-03-20T00:34:26.990Z,9.31
2023-03-20T00:36:55.011Z,9.35
2023-03-20T00:39:23.740Z,9.12
2023-03-20T00:42:00.287Z,9.06
2023-03-20T00:44:39.005Z,9.04
2023-03-20T00:47:18.907Z,9.18
2023-03-20T00:49:48.199Z,9.14
2023-03-20T00:52:17.281Z,9.00
2023-03-20T00:54:44.622Z,8.88
2023-03-20T00:57:20.493Z,8.75
2023-03-20T00:59:53.492Z,8.63
2023-03-20T01:02:24.020Z,8.60
2023-03-20T01:04:52.428Z,8.58
2023-03-20T01:07:19.549Z,8.58
2023-03-20T01:09:47.312Z,8.63
2023-03-20T01:12:15.269Z,8.57
2023-03-20T01:14:43.308Z,8.49
2023-03-20T01:17:29.976Z,8.42
2023-03-20T01:19:57.209Z,8.63
2023-03-20T01:22:24.867Z,8.69
2023-03-20T01:24:52.239Z,8.81
2023-03-20T01:27:20.301Z,8.77
2023-03-20T01:29:47.803Z,8.83
2023-03-20T01:32:17.902Z,8.95
2023-03-20T01:34:45.527Z,8.90
2023-03-20T01:37:17.086Z,8.85
2023-03-20T01:39:46.030Z,8.88
2023-03-20T01:42:17.168Z,9.04
2023-03-20T01:44:44.350Z,9.07
2023-03-20T01:47:21.360Z,8.99
2023-03-20T01:50:22.770Z,9.05
2023-03-20T01:53:07.880Z,9.11
2023-03-20T01:55:40.603Z,9.01
2023-03-20T01:58:21.576Z,9.11
2023-03-20T02:00:49.890Z,9.27
2023-03-20T02:03:18.957Z,9.24
2023-03-20T02:05:48.629Z,9.14
2023-03-20T02:08:17.959Z,9.11
2023-03-20T02:10:47.274Z,9.08
2023-03-20T02:13:16.752Z,9.12
2023-03-20T02:16:14.819Z,9.13
2023-03-20T02:18:49.833Z,9.15
2023-03-20T02:21:27.104Z,9.25
2023-03-20T02:24:17.909Z,9.30
2023-03-20T02:27:02.461Z,9.18
2023-03-20T02:30:02.347Z,9.10
2023-03-20T02:32:32.545Z,9.10
2023-03-20T02:35:38.214Z,9.10
2023-03-20T02:38:25.334Z,8.97
2023-03-20T02:41:20.968Z,8.91
2023-03-20T02:44:00.256Z,8.81
2023-03-20T02:46:34.025Z,8.75
2023-03-20T02:49:21.717Z,8.63
2023-03-20T02:52:16.843Z,8.38
2023-03-20T02:54:58.505Z,8.20
2023-03-20T02:57:34.296Z,8.03
2023-03-20T03:00:14.510Z,7.94
2023-03-20T03:02:49.273Z,7.85
2023-03-20T03:05:22.641Z,7.67
2023-03-20T03:07:52.590Z,7.55
2023-03-20T03:10:32.025Z,7.47
2023-03-20T03:13:04.925Z,7.47
2023-03-20T03:15:39.326Z,7.45
2023-03-20T03:18:12.233Z,7.35
2023-03-20T03:20:39.887Z,7.25
2023-03-20T03:23:07.954Z,7.17
2023-03-20T03:25:40.346Z,7.10
2023-03-20T03:28:37.057Z,7.05
2023-03-20T03:31:08.183Z,7.01
2023-03-20T03:33:39.574Z,7.05
2023-03-20T03:36:32.496Z,7.05
2023-03-20T03:39:32.573Z,6.90
2023-03-20T03:42:22.633Z,6.85
2023-03-20T03:45:09.003Z,6.74
2023-03-20T03:47:54.813Z,6.85
2023-03-20T03:50:28.479Z,6.76
2023-03-20T03:52:59.710Z,6.60
2023-03-20T03:55:39.660Z,6.46
2023-03-20T03:58:47.423Z,6.34
2023-03-20T04:01:17.480Z,6.28
2023-03-20T04:03:54.865Z,6.20
2023-03-20T04:06:22.059Z,6.18
2023-03-20T04:08:51.903Z,6.16
2023-03-20T04:11:22.773Z,6.26
2023-03-20T04:13:52.221Z,6.15
2023-03-20T04:16:21.897Z,6.07
2023-03-20T04:18:49.874Z,6.07
2023-03-20T04:21:17.902Z,6.14
2023-03-20T04:23:46.061Z,6.15
2023-03-20T04:26:13.464Z,5.98
2023-03-20T04:28:41.088Z,5.96
2023-03-20T04:31:10.348Z,5.86
2023-03-20T04:33:38.004Z,5.81
2023-03-20T04:36:06.383Z,5.78
2023-03-20T04:38:33.831Z,5.80
2023-03-20T04:41:01.429Z,5.82
2023-03-20T04:43:29.373Z,5.90
2023-03-20T04:45:59.226Z,5.83
2023-03-20T04:48:28.022Z,5.79
2023-03-20T04:50:55.246Z,5.93
2023-03-20T04:53:26.973Z,5.94
2023-03-20T04:55:54.691Z,5.87
2023-03-20T04:58:23.675Z,5.84
2023-03-20T05:00:51.191Z,5.82
2023-03-20T05:03:18.268Z,5.84
2023-03-20T05:05:45.429Z,5.88
2023-03-20T05:08:12.906Z,5.98
2023-03-20T05:10:40.633Z,5.99
2023-03-20T05:13:08.301Z,6.03
2023-03-20T05:15:35.867Z,6.15
2023-03-20T05:18:04.096Z,6.15
2023-03-20T05:20:32.415Z,6.17
2023-03-20T05:23:00.948Z,6.24
2023-03-20T05:25:28.703Z,6.28
2023-03-20T05:27:56.185Z,6.37
2023-03-20T05:30:24.083Z,6.48
2023-03-20T05:32:52.344Z,6.60
2023-03-20T05:35:19.823Z,6.70
2023-03-20T05:37:47.492Z,7.11
2023-03-20T05:40:16.509Z,7.43
2023-03-20T05:42:45.130Z,7.46
2023-03-20T05:45:13.122Z,7.62
2023-03-20T05:47:40.800Z,7.78
2023-03-20T05:50:12.581Z,7.88
2023-03-20T05:52:40.467Z,7.89
2023-03-20T05:55:08.146Z,7.96
2023-03-20T05:57:35.612Z,8.06
2023-03-20T06:00:05.554Z,8.23
2023-03-20T06:02:34.808Z,8.47
2023-03-20T06:05:05.985Z,8.84
2023-03-20T06:07:34.534Z,9.21
2023-03-20T06:10:02.056Z,9.43
2023-03-20T06:12:29.772Z,9.69
2023-03-20T06:14:56.898Z,9.83
2023-03-20T06:17:24.727Z,10.04
2023-03-20T06:19:52.321Z,10.18
2023-03-20T06:22:19.447Z,10.38
2023-03-20T06:24:46.918Z,10.51
2023-03-20T06:27:14.492Z,10.71
2023-03-20T06:29:41.974Z,10.87
2023-03-20T06:32:12.347Z,11.23
2023-03-20T06:34:39.893Z,11.55
2023-03-20T06:37:07.673Z,11.86
2023-03-20T06:39:34.866Z,12.14
2023-03-20T06:42:02.371Z,12.28
2023-03-20T06:44:29.459Z,12.42
2023-03-20T06:46:58.063Z,12.49
2023-03-20T06:49:26.242Z,12.71
2023-03-20T06:51:53.811Z,13.01
2023-03-20T06:54:22.599Z,13.52
2023-03-20T06:56:51.454Z,14.31
2023-03-20T06:59:19.061Z,14.78
2023-03-20T07:01:46.673Z,15.10
2023-03-20T07:04:14.723Z,15.41
2023-03-20T07:06:42.671Z,16.01
2023-03-20T07:09:10.349Z,15.97
2023-03-20T07:11:38.345Z,16.07
2023-03-20T07:14:05.980Z,16.26
2023-03-20T07:16:35.019Z,16.50
2023-03-20T07:19:02.796Z,16.67
2023-03-20T07:21:33.996Z,16.84
2023-03-20T07:24:01.312Z,16.86
2023-03-20T07:26:29.055Z,16.80
2023-03-20T07:28:56.851Z,16.50
2023-03-20T07:31:26.640Z,16.54
2023-03-20T07:33:54.267Z,16.43
2023-03-20T07:36:21.818Z,15.90
2023-03-20T07:38:49.511Z,16.47
2023-03-20T07:41:18.305Z,16.83
2023-03-20T07:43:45.896Z,16.87
2023-03-20T07:46:17.740Z,16.82
2023-03-20T07:48:45.278Z,16.64
2023-03-20T07:51:12.338Z,16.87
2023-03-20T07:53:39.563Z,17.03
2023-03-20T07:56:07.329Z,17.00
2023-03-20T07:58:34.590Z,17.12
2023-03-20T08:01:02.993Z,17.29
2023-03-20T08:03:30.392Z,17.54
2023-03-20T08:05:58.407Z,17.73
2023-03-20T08:08:25.657Z,17.66
2023-03-20T08:10:52.988Z,17.77
2023-03-20T08:13:20.042Z,17.77
2023-03-20T08:15:47.605Z,17.89
2023-03-20T08:18:15.289Z,18.14
2023-03-20T08:20:42.349Z,17.88
2023-03-20T08:23:09.362Z,17.98
2023-03-20T08:25:37.081Z,18.40
2023-03-20T08:28:04.650Z,18.54
2023-03-20T08:30:31.901Z,18.35
2023-03-20T08:32:59.359Z,18.51
2023-03-20T08:35:45.130Z,18.49
2023-03-20T08:38:13.816Z,18.17
2023-03-20T08:40:42.041Z,18.25
2023-03-20T08:43:09.360Z,18.17
2023-03-20T08:45:36.987Z,18.35
2023-03-20T08:48:04.827Z,18.03
2023-03-20T08:50:32.183Z,18.19
2023-03-20T08:52:59.524Z,18.02
2023-03-20T08:55:26.702Z,18.01
2023-03-20T08:57:54.581Z,18.21
2023-03-20T09:00:22.478Z,18.21
2023-03-20T09:02:50.879Z,17.83
2023-03-20T09:05:18.032Z,17.79
2023-03-20T09:07:45.505Z,17.86
2023-03-20T09:10:12.939Z,18.07
2023-03-20T09:12:40.075Z,18.10
2023-03-20T09:15:08.207Z,17.89
2023-03-20T09:17:35.486Z,17.76
2023-03-20T09:20:02.999Z,17.70
2023-03-20T09:22:31.095Z,17.86
2023-03-20T09:24:58.155Z,17.88
2023-03-20T09:27:25.293Z,17.79
2023-03-20T09:29:52.587Z,17.55
2023-03-20T09:32:19.649Z,17.72
2023-03-20T09:34:47.454Z,17.65
2023-03-20T09:37:14.806Z,17.56
2023-03-20T09:39:41.876Z,17.76
2023-03-20T09:42:36.267Z,17.88
2023-03-20T09:45:09.823Z,17.88
2023-03-20T09:47:49.815Z,18.18
2023-03-20T09:50:38.485Z,18.22
2023-03-20T09:53:25.524Z,18.28
2023-03-20T09:55:54.205Z,18.68
2023-03-20T09:58:31.588Z,18.55
2023-03-20T10:01:01.154Z,18.18
2023-03-20T10:03:58.866Z,18.01
2023-03-20T10:06:26.329Z,18.11
2023-03-20T10:08:55.290Z,18.09
2023-03-20T10:11:34.953Z,18.15
2023-03-20T10:14:16.287Z,18.32
2023-03-20T10:17:13.243Z,18.07
2023-03-20T10:19:50.856Z,17.96
2023-03-20T10:22:22.525Z,18.16
2023-03-20T10:24:59.176Z,18.10
2023-03-20T10:27:34.064Z,18.54
2023-03-20T10:30:31.217Z,18.73
2023-03-20T10:33:04.386Z,18.63
2023-03-20T10:35:57.914Z,18.76
2023-03-20T10:38:43.157Z,18.62
2023-03-20T10:41:16.464Z,18.59
2023-03-20T10:43:45.543Z,18.15
2023-03-20T10:46:19.829Z,17.96
2023-03-20T10:48:53.081Z,18.26
2023-03-20T10:51:25.226Z,18.16
2023-03-20T10:53:56.958Z,17.94
2023-03-20T10:56:32.431Z,18.11
2023-03-20T10:59:08.935Z,18.28
2023-03-20T11:01:36.566Z,18.38
2023-03-20T11:04:03.958Z,18.13
2023-03-20T11:06:43.149Z,17.99
2023-03-20T11:09:26.810Z,17.68
2023-03-20T11:11:58.013Z,17.79
2023-03-20T11:14:32.945Z,17.84
2023-03-20T11:17:03.976Z,18.08
2023-03-20T11:19:37.581Z,17.97
2023-03-20T11:22:26.307Z,17.83
2023-03-20T11:25:01.829Z,17.83
2023-03-20T11:27:33.093Z,18.00
2023-03-20T11:30:03.550Z,18.02
2023-03-20T11:32:31.955Z,17.98
2023-03-20T11:35:19.524Z,17.89
2023-03-20T11:37:49.663Z,17.98
2023-03-20T11:40:33.514Z,17.64
2023-03-20T11:43:00.909Z,17.83
2023-03-20T11:45:35.717Z,18.09
2023-03-20T11:48:04.565Z,17.65
2023-03-20T11:50:33.076Z,17.69
2023-03-20T11:53:17.234Z,17.83
2023-03-20T11:55:46.706Z,17.90
2023-03-20T11:58:17.203Z,17.73
2023-03-20T12:00:51.651Z,17.80
2023-03-20T12:03:41.904Z,17.52
2023-03-20T12:06:15.699Z,17.49
2023-03-20T12:08:49.031Z,17.50
2023-03-20T12:11:43.421Z,17.20
2023-03-20T12:14:20.915Z,17.45
2023-03-20T12:17:03.942Z,17.53
2023-03-20T12:19:33.143Z,17.45
2023-03-20T12:22:27.161Z,17.27
2023-03-20T12:25:35.291Z,17.45
2023-03-20T12:28:17.915Z,17.51
2023-03-20T12:31:23.000Z,17.49
2023-03-20T12:33:59.091Z,17.68
2023-03-20T12:36:34.698Z,17.67
2023-03-20T12:39:04.394Z,17.92
2023-03-20T12:41:52.099Z,17.92
2023-03-20T12:44:41.627Z,17.68
2023-03-20T12:47:21.402Z,17.30
2023-03-20T12:50:05.743Z,17.31
2023-03-20T12:52:49.501Z,17.44
2023-03-20T12:55:31.288Z,17.72
2023-03-20T12:58:11.141Z,17.80
2023-03-20T13:00:49.608Z,17.89
2023-03-20T13:03:28.184Z,17.73
2023-03-20T13:05:55.359Z,17.40
2023-03-20T13:08:57.335Z,17.55
2023-03-20T13:11:47.645Z,17.56
2023-03-20T13:14:28.384Z,17.66
2023-03-20T13:17:21.132Z,17.65
2023-03-20T13:19:55.003Z,17.79
2023-03-20T13:22:35.162Z,17.25
2023-03-20T13:25:27.382Z,17.52
2023-03-20T13:28:11.674Z,17.38
2023-03-20T13:30:48.638Z,17.67
2023-03-20T13:33:43.815Z,17.44
2023-03-20T13:36:24.391Z,17.56
2023-03-20T13:39:00.756Z,17.71
2023-03-20T13:41:28.570Z,17.66
2023-03-20T13:44:04.620Z,17.68
2023-03-20T13:46:46.958Z,17.65
2023-03-20T13:49:57.204Z,17.56
2023-03-20T13:52:31.135Z,17.45
2023-03-20T13:54:59.282Z,17.42
2023-03-20T13:57:59.606Z,17.30
2023-03-20T14:00:50.024Z,17.44
2023-03-20T14:03:21.046Z,17.54
2023-03-20T14:05:48.295Z,17.35
2023-03-20T14:08:32.515Z,17.42
2023-03-20T14:11:35.608Z,17.50
2023-03-20T14:14:14.890Z,17.35
2023-03-20T14:16:42.918Z,17.53
2023-03-20T14:19:25.500Z,17.41
2023-03-20T14:21:57.014Z,17.15
2023-03-20T14:24:26.619Z,17.00
2023-03-20T14:27:00.624Z,17.22
2023-03-20T14:29:31.309Z,17.53
2023-03-20T14:32:24.005Z,17.54
2023-03-20T14:34:58.715Z,17.37
2023-03-20T14:37:59.486Z,17.30
2023-03-20T14:40:31.611Z,17.08
2023-03-20T14:43:14.080Z,17.09
2023-03-20T14:45:45.351Z,16.94
2023-03-20T14:48:33.861Z,16.95
2023-03-20T14:51:29.925Z,17.04
2023-03-20T14:54:16.979Z,17.11
2023-03-20T14:56:44.126Z,17.13
2023-03-20T14:59:13.229Z,17.16
2023-03-20T15:01:40.470Z,17.20
2023-03-20T15:04:34.882Z,17.06
2023-03-20T15:07:04.592Z,17.20
2023-03-20T15:09:37.132Z,16.92
2023-03-20T15:12:04.769Z,16.68
2023-03-20T15:14:39.325Z,16.57
2023-03-20T15:17:07.286Z,16.50
2023-03-20T15:19:39.860Z,16.33
2023-03-20T15:22:16.632Z,16.33
2023-03-20T15:24:52.027Z,16.28
2023-03-20T15:27:20.692Z,16.33
2023-03-20T15:29:52.241Z,16.29
2023-03-20T15:32:20.842Z,16.25
2023-03-20T15:34:49.594Z,16.32
2023-03-20T15:37:20.672Z,16.32
2023-03-20T15:39:51.984Z,16.25
2023-03-20T15:42:22.110Z,16.29
2023-03-20T15:44:54.494Z,16.36
2023-03-20T15:47:23.932Z,16.55
2023-03-20T15:49:57.811Z,16.63
2023-03-20T15:52:53.066Z,16.58
2023-03-20T15:55:24.152Z,16.57
2023-03-20T15:57:54.029Z,16.53
2023-03-20T16:00:29.467Z,16.58
2023-03-20T16:02:57.465Z,16.54
2023-03-20T16:05:27.151Z,16.53
2023-03-20T16:07:54.754Z,16.54
2023-03-20T16:10:30.826Z,16.39
2023-03-20T16:12:58.429Z,16.41
2023-03-20T16:15:31.312Z,16.36
2023-03-20T16:18:01.401Z,16.15
2023-03-20T16:20:40.480Z,16.14
2023-03-20T16:23:09.481Z,15.90
2023-03-20T16:25:37.701Z,15.79
2023-03-20T16:28:08.790Z,15.79
2023-03-20T16:30:36.447Z,15.64
2023-03-20T16:33:12.953Z,15.37
2023-03-20T16:35:44.375Z,15.30
2023-03-20T16:38:33.284Z,15.22
2023-03-20T16:41:16.016Z,15.18
2023-03-20T16:43:49.427Z,15.01
2023-03-20T16:46:26.517Z,14.85
2023-03-20T16:49:13.756Z,14.76
2023-03-20T16:51:43.924Z,14.69
2023-03-20T16:54:20.839Z,14.61
2023-03-20T16:56:56.107Z,14.43
2023-03-20T16:59:26.033Z,14.29
2023-03-20T17:01:54.276Z,14.28
2023-03-20T17:04:28.784Z,14.17
2023-03-20T17:07:00.523Z,14.03
2023-03-20T17:09:31.229Z,13.91
2023-03-20T17:12:05.646Z,13.85
2023-03-20T17:14:32.806Z,13.81
2023-03-20T17:17:00.412Z,13.73
2023-03-20T17:19:27.598Z,13.73
2023-03-20T17:21:54.829Z,13.64
2023-03-20T17:24:22.271Z,13.52
2023-03-20T17:26:56.388Z,13.44
2023-03-20T17:29:23.788Z,13.35
2023-03-20T17:31:51.148Z,13.37
2023-03-20T17:34:18.208Z,13.26
2023-03-20T17:36:45.593Z,13.22
2023-03-20T17:39:18.864Z,13.08
2023-03-20T17:41:46.849Z,13.04
2023-03-20T17:44:13.980Z,12.94
2023-03-20T17:46:56.669Z,12.82
2023-03-20T17:49:27.568Z,12.78
2023-03-20T17:51:55.886Z,12.65
2023-03-20T17:54:22.935Z,12.54
2023-03-20T17:56:50.356Z,12.43
2023-03-20T17:59:17.426Z,12.36
2023-03-20T18:01:45.158Z,12.37
2023-03-20T18:04:12.701Z,12.22
2023-03-20T18:06:39.974Z,12.15
2023-03-20T18:09:08.913Z,12.13
2023-03-20T18:11:36.431Z,12.08
2023-03-20T18:14:03.556Z,12.02
2023-03-20T18:16:32.527Z,11.89
2023-03-20T18:19:01.525Z,11.73
2023-03-20T18:21:28.764Z,11.60
2023-03-20T18:23:55.980Z,11.60
2023-03-20T18:26:27.886Z,11.58
2023-03-20T18:28:56.243Z,11.43
2023-03-20T18:31:23.631Z,11.26
2023-03-20T18:33:52.734Z,11.21
2023-03-20T18:36:22.626Z,11.09
2023-03-20T18:38:51.614Z,11.00
2023-03-20T18:41:18.918Z,10.88
2023-03-20T18:43:46.696Z,10.82
2023-03-20T18:46:16.354Z,10.79
2023-03-20T18:48:43.808Z,10.69
2023-03-20T18:51:11.033Z,10.63
2023-03-20T18:53:40.661Z,10.68
2023-03-20T18:56:18.267Z,10.71
2023-03-20T18:58:47.060Z,10.63
2023-03-20T19:01:15.716Z,10.55
2023-03-20T19:03:44.144Z,10.45
2023-03-20T19:06:24.599Z,10.42
2023-03-20T19:08:52.606Z,10.42
2023-03-20T19:11:21.628Z,10.34
2023-03-20T19:13:52.250Z,10.50
2023-03-20T19:16:24.594Z,10.59
2023-03-20T19:18:54.231Z,10.81
2023-03-20T19:21:26.418Z,10.89
2023-03-20T19:23:56.562Z,11.12
2023-03-20T19:26:25.806Z,11.17
2023-03-20T19:28:54.757Z,11.32
2023-03-20T19:31:23.199Z,11.48
2023-03-20T19:33:51.200Z,11.50
2023-03-20T19:36:27.412Z,11.66
2023-03-20T19:38:56.610Z,11.79
2023-03-20T19:41:23.901Z,11.77
2023-03-20T19:43:55.272Z,11.74
2023-03-20T19:46:41.967Z,11.79
2023-03-20T19:49:19.845Z,11.93
2023-03-20T19:51:48.910Z,11.85
2023-03-20T19:54:16.534Z,11.85
2023-03-20T19:56:43.593Z,11.91
2023-03-20T19:59:11.088Z,11.97
2023-03-20T20:01:38.192Z,11.93
2023-03-20T20:04:05.943Z,11.95
2023-03-20T20:06:33.419Z,11.90
2023-03-20T20:09:01.725Z,11.80
2023-03-20T20:11:29.292Z,11.85
2023-03-20T20:16:45.568Z,11.78
2023-03-20T20:19:13.987Z,11.72
2023-03-20T20:24:28.574Z,11.56
2023-03-20T20:27:15.061Z,11.66
2023-03-20T20:29:47.806Z,11.59
2023-03-20T20:32:15.711Z,11.67
2023-03-20T20:40:20.968Z,11.42
2023-03-20T20:42:51.540Z,11.40
2023-03-20T20:45:20.720Z,11.38
2023-03-20T20:47:48.292Z,11.31
2023-03-20T20:50:19.276Z,11.20
2023-03-20T20:52:46.903Z,11.10
2023-03-20T20:55:22.863Z,10.96
2023-03-20T20:58:05.761Z,10.97
2023-03-20T21:00:48.551Z,10.80
2023-03-20T21:03:17.361Z,10.77
2023-03-20T21:05:44.486Z,10.66
2023-03-20T21:08:13.309Z,10.60
2023-03-20T21:10:40.880Z,10.61
2023-03-20T21:13:08.594Z,10.66
2023-03-20T21:15:36.758Z,10.81
2023-03-20T21:18:04.846Z,10.91
2023-03-20T21:20:32.997Z,10.79
2023-03-20T21:23:00.300Z,10.69
2023-03-20T21:25:47.049Z,10.69
2023-03-20T21:28:15.769Z,10.66
2023-03-20T21:31:08.909Z,10.58
2023-03-20T21:33:35.882Z,10.51
2023-03-20T21:36:06.105Z,10.48
2023-03-20T21:41:22.110Z,10.50
2023-03-20T21:43:49.868Z,10.59
2023-03-20T21:52:38.924Z,10.66
2023-03-20T21:58:16.898Z,10.85
2023-03-20T22:01:14.466Z,10.89
2023-03-20T22:03:10.392Z,10.96
2023-03-20T22:06:22.056Z,10.90
2023-03-20T22:15:03.801Z,10.54
2023-03-20T22:31:34.524Z,10.41
2023-03-20T22:39:50.940Z,10.29
2023-03-20T22:45:01.764Z,10.23
2023-03-20T22:47:31.280Z,10.28
2023-03-20T22:49:58.825Z,10.48
2023-03-20T22:52:37.879Z,10.55
2023-03-20T22:55:06.253Z,10.54
2023-03-20T22:57:42.296Z,10.46
2023-03-20T23:00:16.424Z,10.40
2023-03-20T23:02:43.701Z,10.35
2023-03-20T23:05:11.619Z,10.31
2023-03-20T23:07:39.116Z,10.31
2023-03-20T23:10:06.853Z,10.32
2023-03-20T23:12:33.923Z,10.33
2023-03-20T23:15:01.227Z,10.26
2023-03-20T23:17:28.244Z,10.28
2023-03-20T23:20:08.738Z,10.27
2023-03-20T23:22:38.783Z,10.27
2023-03-20T23:25:16.460Z,10.23
2023-03-20T23:27:48.554Z,10.38
2023-03-20T23:30:15.895Z,10.42
2023-03-20T23:32:43.007Z,10.45
2023-03-20T23:35:10.423Z,10.38
2023-03-20T23:37:37.601Z,10.47
2023-03-20T23:40:05.374Z,10.50
2023-03-20T23:42:32.823Z,10.50
2023-03-20T23:45:07.118Z,10.60
2023-03-20T23:47:44.866Z,10.60
2023-03-20T23:50:20.790Z,10.57
2023-03-20T23:53:03.623Z,10.61
2023-03-20T23:55:35.681Z,10.76
2023-03-20T23:58:03.469Z,10.72
